createdAt,value
2019-02-09T00:01:25.012Z,1.10
2019-02-09T00:04:14.931Z,1.06
2019-02-09T00:07:04.726Z,1.10
2019-02-09T00:09:45.448Z,1.03
2019-02-09T00:12:35.052Z,1.14
2019-02-09T00:15:24.621Z,1.07
2019-02-09T00:18:15.841Z,1.10
2019-02-09T00:21:05.510Z,1.19
2019-02-09T00:23:55.158Z,1.47
2019-02-09T00:26:35.259Z,1.38
2019-02-09T00:29:24.641Z,1.39
2019-02-09T00:32:13.871Z,1.10
2019-02-09T00:35:03.473Z,0.86
2019-02-09T00:37:53.208Z,1.52
2019-02-09T00:40:45.073Z,1.83
2019-02-09T00:43:34.595Z,2.05
2019-02-09T00:46:24.303Z,2.24
2019-02-09T00:49:13.799Z,2.28
2019-02-09T00:52:03.468Z,2.47
2019-02-09T00:54:54.087Z,2.33
2019-02-09T00:57:43.663Z,2.37
2019-02-09T01:00:33.604Z,2.45
2019-02-09T01:03:23.281Z,2.40
2019-02-09T01:06:12.594Z,2.34
2019-02-09T01:08:42.964Z,2.35
2019-02-09T01:11:32.253Z,2.34
2019-02-09T01:14:21.694Z,2.41
2019-02-09T01:17:26.539Z,2.39
2019-02-09T01:20:02.373Z,2.40
2019-02-09T01:22:52.458Z,2.59
2019-02-09T01:25:41.789Z,2.31
2019-02-09T01:28:23.500Z,2.67
2019-02-09T01:31:05.164Z,2.76
2019-02-09T01:33:47.141Z,2.70
2019-02-09T01:36:28.361Z,2.62
2019-02-09T01:39:10.064Z,2.57
2019-02-09T01:41:50.099Z,2.80
2019-02-09T01:45:02.528Z,3.07
2019-02-09T01:47:51.798Z,3.19
2019-02-09T01:50:41.147Z,3.43
2019-02-09T01:53:30.797Z,3.67
2019-02-09T01:56:01.162Z,3.63
2019-02-09T01:58:50.819Z,3.77
2019-02-09T02:01:40.395Z,3.81
2019-02-09T02:04:29.651Z,3.81
2019-02-09T02:07:19.420Z,3.86
2019-02-09T02:10:10.733Z,3.92
2019-02-09T02:13:00.636Z,3.98
2019-02-09T02:15:50.192Z,3.64
2019-02-09T02:18:31.829Z,4.12
2019-02-09T02:21:13.142Z,4.12
2019-02-09T02:23:55.507Z,4.37
2019-02-09T02:26:37.174Z,4.64
2019-02-09T02:32:08.464Z,4.91
2019-02-09T02:34:50.334Z,4.95
2019-02-09T02:37:31.806Z,5.03
2019-02-09T02:40:13.786Z,5.04
2019-02-09T02:42:55.478Z,5.15
2019-02-09T02:45:36.998Z,5.18
2019-02-09T02:48:18.637Z,5.03
2019-02-09T02:51:00.663Z,5.03
2019-02-09T02:53:42.238Z,5.16
2019-02-09T02:56:24.848Z,5.30
2019-02-09T02:59:06.278Z,5.42
2019-02-09T03:01:48.103Z,5.36
2019-02-09T03:04:29.517Z,5.09
2019-02-09T03:07:10.339Z,5.28
2019-02-09T03:10:18.517Z,5.22
2019-02-09T03:13:28.418Z,5.29
2019-02-09T03:16:18.296Z,5.42
2019-02-09T03:19:00.277Z,5.45
2019-02-09T03:21:42.287Z,5.37
2019-02-09T03:24:13.513Z,4.38
2019-02-09T03:27:02.730Z,5.29
2019-02-09T03:29:33.419Z,5.51
2019-02-09T03:32:23.119Z,5.53
2019-02-09T03:35:12.900Z,5.62
2019-02-09T03:37:43.389Z,5.66
2019-02-09T03:40:32.997Z,5.67
2019-02-09T03:43:22.336Z,6.09
2019-02-09T03:46:12.299Z,6.01
2019-02-09T03:49:01.892Z,6.32
2019-02-09T03:51:51.162Z,6.53
2019-02-09T03:54:22.510Z,6.77
2019-02-09T03:57:12.609Z,7.00
2019-02-09T04:00:02.238Z,7.07
2019-02-09T04:02:51.873Z,7.30
2019-02-09T04:05:41.158Z,7.45
2019-02-09T04:08:30.759Z,7.45
2019-02-09T04:11:19.995Z,7.52
2019-02-09T04:14:09.681Z,7.58
2019-02-09T04:16:40.029Z,7.51
2019-02-09T04:19:29.486Z,7.40
2019-02-09T04:22:19.153Z,7.20
2019-02-09T04:25:09.478Z,7.06
2019-02-09T04:27:59.077Z,6.98
2019-02-09T04:30:48.803Z,6.92
2019-02-09T04:33:38.389Z,6.96
2019-02-09T04:37:02.313Z,6.92
2019-02-09T04:39:51.773Z,7.05
2019-02-09T04:42:41.378Z,6.93
2019-02-09T04:45:30.751Z,6.78
2019-02-09T04:48:20.382Z,6.67
2019-02-09T04:51:09.930Z,6.61
2019-02-09T04:53:40.147Z,6.63
2019-02-09T04:56:10.382Z,6.53
2019-02-09T04:58:47.963Z,6.57
2019-02-09T05:01:18.158Z,6.49
2019-02-09T05:04:07.748Z,6.53
2019-02-09T05:06:57.008Z,6.66
2019-02-09T05:09:46.898Z,6.65
2019-02-09T05:12:36.184Z,6.67
2019-02-09T05:15:25.758Z,6.67
2019-02-09T05:18:16.190Z,6.60
2019-02-09T05:20:57.753Z,6.55
2019-02-09T05:23:28.665Z,6.68
2019-02-09T05:26:17.980Z,6.63
2019-02-09T05:28:48.334Z,6.68
2019-02-09T05:31:37.708Z,6.70
2019-02-09T05:34:27.433Z,6.63
2019-02-09T05:37:17.012Z,6.66
2019-02-09T05:40:06.524Z,6.60
2019-02-09T05:42:56.317Z,6.56
2019-02-09T05:45:45.945Z,6.58
2019-02-09T05:48:16.304Z,6.55
2019-02-09T05:51:06.127Z,6.52
2019-02-09T05:56:33.013Z,6.52
2019-02-09T05:59:22.272Z,6.41
2019-02-09T06:01:52.904Z,6.44
2019-02-09T06:04:42.266Z,6.38
2019-02-09T06:07:13.065Z,6.28
2019-02-09T06:09:43.364Z,6.26
2019-02-09T06:12:16.141Z,6.17
2019-02-09T06:14:47.413Z,6.18
2019-02-09T06:17:17.784Z,6.22
2019-02-09T06:20:07.501Z,6.28
2019-02-09T06:22:57.486Z,6.29
2019-02-09T06:25:47.091Z,6.34
2019-02-09T06:28:36.623Z,6.36
2019-02-09T06:31:25.977Z,6.31
2019-02-09T06:34:15.810Z,6.44
2019-02-09T06:37:05.415Z,6.44
2019-02-09T06:39:54.836Z,6.39
2019-02-09T06:42:44.514Z,6.31
2019-02-09T06:45:34.055Z,6.40
2019-02-09T06:48:24.752Z,6.47
2019-02-09T06:51:16.714Z,6.55
2019-02-09T06:54:06.064Z,6.57
2019-02-09T06:56:56.001Z,6.59
2019-02-09T06:59:26.277Z,6.68
2019-02-09T07:02:15.893Z,6.50
2019-02-09T07:05:24.997Z,6.36
2019-02-09T07:08:14.487Z,6.41
2019-02-09T07:14:13.968Z,6.36
2019-02-09T07:17:03.804Z,5.55
2019-02-09T07:19:53.426Z,6.49
2019-02-09T07:22:35.097Z,6.57
2019-02-09T07:25:16.845Z,6.65
2019-02-09T07:27:57.559Z,6.80
2019-02-09T07:30:47.039Z,6.95
2019-02-09T07:33:36.387Z,6.98
2019-02-09T07:36:16.970Z,7.06
2019-02-09T07:39:09.108Z,7.12
2019-02-09T07:41:58.369Z,7.17
2019-02-09T07:44:47.663Z,7.12
2019-02-09T07:47:37.881Z,7.01
2019-02-09T07:50:27.381Z,6.99
2019-02-09T07:53:16.707Z,6.99
2019-02-09T07:56:06.489Z,7.10
2019-02-09T08:01:48.789Z,7.06
2019-02-09T08:04:48.602Z,6.96
2019-02-09T08:07:18.983Z,6.92
2019-02-09T08:10:10.221Z,7.06
2019-02-09T08:13:00.239Z,7.09
2019-02-09T08:15:31.477Z,7.18
2019-02-09T08:18:21.203Z,7.28
2019-02-09T08:21:03.101Z,7.20
2019-02-09T08:23:44.665Z,7.26
2019-02-09T08:29:07.578Z,7.34
2019-02-09T08:31:38.158Z,7.45
2019-02-09T08:34:27.658Z,7.51
2019-02-09T08:37:07.714Z,7.54
2019-02-09T08:43:07.935Z,7.70
2019-02-09T08:45:57.574Z,7.78
2019-02-09T08:48:46.912Z,7.97
2019-02-09T08:51:21.661Z,8.31
2019-02-09T08:54:12.059Z,8.46
2019-02-09T08:56:42.245Z,8.57
2019-02-09T08:59:31.862Z,8.33
2019-02-09T09:02:06.676Z,8.26
2019-02-09T09:04:36.991Z,8.32
2019-02-09T09:07:37.571Z,8.48
2019-02-09T09:10:24.940Z,8.64
2019-02-09T09:13:14.641Z,8.99
2019-02-09T09:15:55.119Z,9.15
2019-02-09T09:21:20.404Z,9.27
2019-02-09T09:23:55.769Z,9.38
2019-02-09T09:26:44.622Z,9.38
2019-02-09T09:29:15.607Z,9.16
2019-02-09T09:31:46.517Z,9.21
2019-02-09T09:34:44.558Z,8.86
2019-02-09T09:40:13.477Z,9.17
2019-02-09T09:42:46.500Z,9.26
2019-02-09T09:45:19.655Z,9.39
2019-02-09T09:47:50.337Z,9.63
2019-02-09T09:50:22.117Z,9.90
2019-02-09T09:52:52.748Z,10.19
2019-02-09T09:55:42.281Z,10.25
2019-02-09T09:58:33.634Z,9.30
2019-02-09T10:01:03.934Z,9.80
2019-02-09T10:03:34.172Z,9.59
2019-02-09T10:06:23.642Z,9.46
2019-02-09T10:08:54.156Z,9.33
2019-02-09T10:11:24.424Z,9.31
2019-02-09T10:13:54.629Z,9.02
2019-02-09T10:16:44.134Z,8.99
2019-02-09T10:19:14.452Z,9.09
2019-02-09T10:22:03.861Z,9.13
2019-02-09T10:24:53.704Z,9.20
2019-02-09T10:27:35.425Z,9.39
2019-02-09T10:33:00.417Z,9.09
2019-02-09T10:35:58.159Z,9.66
2019-02-09T10:38:49.752Z,9.68
2019-02-09T10:41:20.474Z,9.93
2019-02-09T10:44:09.853Z,9.88
2019-02-09T10:46:59.442Z,10.10
2019-02-09T10:49:48.942Z,10.01
2019-02-09T10:52:22.198Z,9.98
2019-02-09T10:55:11.761Z,9.99
2019-02-09T10:57:48.070Z,10.04
2019-02-09T11:00:42.277Z,10.14
2019-02-09T11:03:13.115Z,10.22
2019-02-09T11:05:44.771Z,10.10
2019-02-09T11:08:34.890Z,10.08
2019-02-09T11:11:24.102Z,9.98
2019-02-09T11:14:13.733Z,9.99
2019-02-09T11:17:03.488Z,10.05
2019-02-09T11:19:53.138Z,10.09
2019-02-09T11:22:34.589Z,10.18
2019-02-09T11:27:59.321Z,9.98
2019-02-09T11:30:41.535Z,10.30
2019-02-09T11:33:22.732Z,10.36
2019-02-09T11:38:45.816Z,10.55
2019-02-09T11:41:20.036Z,10.54
2019-02-09T11:43:50.651Z,10.50
2019-02-09T11:46:21.120Z,10.46
2019-02-09T11:48:51.482Z,10.43
2019-02-09T11:51:21.778Z,10.38
2019-02-09T11:54:13.449Z,10.25
2019-02-09T11:56:45.455Z,10.10
2019-02-09T11:59:38.393Z,10.10
2019-02-09T12:02:27.745Z,9.91
2019-02-09T12:05:17.267Z,9.92
2019-02-09T12:07:51.606Z,9.96
2019-02-09T12:10:40.942Z,9.96
2019-02-09T12:13:11.254Z,10.05
2019-02-09T12:16:00.557Z,10.01
2019-02-09T12:18:50.282Z,10.11
2019-02-09T12:21:39.865Z,10.22
2019-02-09T12:24:21.272Z,10.19
2019-02-09T12:27:02.868Z,10.19
2019-02-09T12:29:33.509Z,10.25
2019-02-09T12:32:23.218Z,10.24
2019-02-09T12:35:13.533Z,10.25
2019-02-09T12:37:43.814Z,10.42
2019-02-09T12:40:21.228Z,10.45
2019-02-09T12:42:51.855Z,10.50
2019-02-09T12:45:23.096Z,10.57
2019-02-09T12:48:12.682Z,10.62
2019-02-09T12:50:43.616Z,10.33
2019-02-09T12:53:32.992Z,10.52
2019-02-09T12:56:03.473Z,10.60
2019-02-09T12:58:34.616Z,10.60
2019-02-09T13:01:24.353Z,10.64
2019-02-09T13:04:13.849Z,10.69
2019-02-09T13:07:07.581Z,10.66
2019-02-09T13:09:57.227Z,10.60
2019-02-09T13:12:55.799Z,10.61
2019-02-09T13:15:47.226Z,10.65
2019-02-09T13:18:38.486Z,10.63
2019-02-09T13:21:10.329Z,10.59
2019-02-09T13:23:41.616Z,10.66
2019-02-09T13:26:12.676Z,10.64
2019-02-09T13:28:43.290Z,10.63
2019-02-09T13:31:17.671Z,10.66
2019-02-09T13:34:08.540Z,10.65
2019-02-09T13:36:57.939Z,10.65
2019-02-09T13:39:47.567Z,10.72
2019-02-09T13:42:36.886Z,9.98
2019-02-09T13:45:15.356Z,10.72
2019-02-09T13:48:06.264Z,10.70
2019-02-09T13:50:55.529Z,10.74
2019-02-09T13:53:26.052Z,10.67
2019-02-09T13:55:56.490Z,10.62
2019-02-09T13:58:28.044Z,10.58
2019-02-09T14:01:20.629Z,10.60
2019-02-09T14:07:06.143Z,10.54
2019-02-09T14:09:45.648Z,10.63
2019-02-09T14:12:35.243Z,10.52
2019-02-09T14:15:27.852Z,10.50
2019-02-09T14:18:19.490Z,10.56
2019-02-09T14:21:09.016Z,10.55
2019-02-09T14:24:02.481Z,10.35
2019-02-09T14:26:32.973Z,10.35
2019-02-09T14:29:03.902Z,10.34
2019-02-09T14:31:48.484Z,10.23
2019-02-09T14:34:29.505Z,10.13
2019-02-09T14:36:59.856Z,10.21
2019-02-09T14:39:30.379Z,10.14
2019-02-09T14:42:00.709Z,10.12
2019-02-09T14:44:32.089Z,9.99
2019-02-09T14:47:05.490Z,9.93
2019-02-09T14:52:17.473Z,9.94
2019-02-09T14:54:48.000Z,9.83
2019-02-09T14:57:38.658Z,9.90
2019-02-09T15:00:29.912Z,9.17
2019-02-09T15:03:27.237Z,9.93
2019-02-09T15:05:54.656Z,9.90
2019-02-09T15:08:47.012Z,9.91
2019-02-09T15:11:17.482Z,9.86
2019-02-09T15:14:07.013Z,9.93
2019-02-09T15:19:53.666Z,9.84
2019-02-09T15:22:24.221Z,9.81
2019-02-09T15:24:56.814Z,9.79
2019-02-09T15:27:38.785Z,9.77
2019-02-09T15:30:20.985Z,9.72
2019-02-09T15:32:52.131Z,9.68
2019-02-09T15:35:41.714Z,9.66
2019-02-09T15:38:31.113Z,9.64
2019-02-09T15:41:20.726Z,9.61
2019-02-09T15:44:10.071Z,9.55
2019-02-09T15:46:40.724Z,9.55
2019-02-09T15:49:30.468Z,9.59
2019-02-09T15:52:19.970Z,9.58
2019-02-09T15:55:10.360Z,9.53
2019-02-09T15:57:59.681Z,9.48
2019-02-09T16:01:09.239Z,9.47
2019-02-09T16:03:39.534Z,9.40
2019-02-09T16:06:29.087Z,9.40
2019-02-09T16:08:59.404Z,9.43
2019-02-09T16:11:29.682Z,9.39
2019-02-09T16:14:01.828Z,9.44
2019-02-09T16:16:32.061Z,9.42
2019-02-09T16:19:13.429Z,9.40
2019-02-09T16:21:44.235Z,9.36
2019-02-09T16:24:34.129Z,9.47
2019-02-09T16:27:23.487Z,9.44
2019-02-09T16:29:53.793Z,9.28
2019-02-09T16:32:24.343Z,9.18
2019-02-09T16:35:15.631Z,9.22
2019-02-09T16:38:05.377Z,9.33
2019-02-09T16:40:47.174Z,9.29
2019-02-09T16:43:37.868Z,9.30
2019-02-09T16:46:28.789Z,9.21
2019-02-09T16:49:18.410Z,9.19
2019-02-09T16:52:07.715Z,9.07
2019-02-09T16:54:57.500Z,8.88
2019-02-09T16:57:27.874Z,8.87
2019-02-09T17:00:21.400Z,8.78
2019-02-09T17:03:11.238Z,8.81
2019-02-09T17:06:01.375Z,8.84
2019-02-09T17:08:51.466Z,8.63
2019-02-09T17:11:41.154Z,8.69
2019-02-09T17:17:30.361Z,8.73
2019-02-09T17:20:20.793Z,8.71
2019-02-09T17:22:53.654Z,8.62
2019-02-09T17:25:27.371Z,8.42
2019-02-09T17:28:19.830Z,8.57
2019-02-09T17:30:53.676Z,8.62
2019-02-09T17:33:27.086Z,8.60
2019-02-09T17:35:58.692Z,8.64
2019-02-09T17:38:30.530Z,8.55
2019-02-09T17:41:03.707Z,8.69
2019-02-09T17:43:37.332Z,8.78
2019-02-09T17:46:16.332Z,8.65
2019-02-09T17:49:10.267Z,8.61
2019-02-09T17:51:44.559Z,8.49
2019-02-09T17:54:15.793Z,8.43
2019-02-09T17:57:06.428Z,8.54
2019-02-09T17:59:53.852Z,8.63
2019-02-09T18:02:31.441Z,8.06
2019-02-09T18:05:22.187Z,8.68
2019-02-09T18:08:12.508Z,8.58
2019-02-09T18:10:44.304Z,8.51
2019-02-09T18:13:15.809Z,8.32
2019-02-09T18:15:47.364Z,8.35
2019-02-09T18:18:18.719Z,8.35
2019-02-09T18:20:50.457Z,8.22
2019-02-09T18:23:22.598Z,8.01
2019-02-09T18:25:53.651Z,8.03
2019-02-09T18:28:43.477Z,7.94
2019-02-09T18:31:33.280Z,8.06
2019-02-09T18:34:23.517Z,7.88
2019-02-09T18:40:19.078Z,7.68
2019-02-09T18:43:26.927Z,7.51
2019-02-09T18:46:17.405Z,7.49
2019-02-09T18:49:08.383Z,7.36
2019-02-09T18:51:41.355Z,7.24
2019-02-09T18:54:32.160Z,7.15
2019-02-09T18:57:22.786Z,7.17
2019-02-09T19:00:13.886Z,7.19
2019-02-09T19:03:04.000Z,7.11
2019-02-09T19:05:55.981Z,7.05
2019-02-09T19:08:47.190Z,7.10
2019-02-09T19:11:56.536Z,7.20
2019-02-09T19:14:30.508Z,7.11
2019-02-09T19:17:20.877Z,6.91
2019-02-09T19:20:12.795Z,6.73
2019-02-09T19:22:44.967Z,6.78
2019-02-09T19:25:35.411Z,6.76
2019-02-09T19:28:25.870Z,6.61
2019-02-09T19:31:17.396Z,6.64
2019-02-09T19:34:21.654Z,6.64
2019-02-09T19:36:51.664Z,6.54
2019-02-09T19:39:24.295Z,6.50
2019-02-09T19:45:30.771Z,6.70
2019-02-09T19:51:30.737Z,6.32
2019-02-09T19:54:04.328Z,6.23
2019-02-09T19:56:54.686Z,6.18
2019-02-09T20:02:38.287Z,6.31
2019-02-09T20:05:46.901Z,6.21
2019-02-09T20:08:37.471Z,6.05
2019-02-09T20:11:30.390Z,5.97
2019-02-09T20:14:22.336Z,5.84
2019-02-09T20:17:13.888Z,5.75
2019-02-09T20:19:55.447Z,5.71
2019-02-09T20:22:37.799Z,5.52
2019-02-09T20:25:20.947Z,5.43
2019-02-09T20:28:05.559Z,5.32
2019-02-09T20:33:20.816Z,5.16
2019-02-09T20:35:54.549Z,5.08
2019-02-09T20:38:26.677Z,5.11
2019-02-09T20:41:20.005Z,5.04
2019-02-09T20:44:12.639Z,4.96
2019-02-09T20:47:03.331Z,4.96
2019-02-09T20:49:55.723Z,5.02
2019-02-09T20:52:45.948Z,5.04
2019-02-09T20:55:38.636Z,4.97
2019-02-09T20:58:12.522Z,4.93
2019-02-09T21:00:44.127Z,4.80
2019-02-09T21:03:16.624Z,4.74
2019-02-09T21:06:07.236Z,4.71
2019-02-09T21:08:38.609Z,4.69
2019-02-09T21:11:15.203Z,4.73
2019-02-09T21:13:47.642Z,4.71
2019-02-09T21:16:38.017Z,4.76
2019-02-09T21:19:32.275Z,4.74
2019-02-09T21:22:04.634Z,4.80
2019-02-09T21:24:54.953Z,4.75
2019-02-09T21:27:31.779Z,4.68
2019-02-09T21:30:22.315Z,4.62
2019-02-09T21:32:58.127Z,4.65
2019-02-09T21:35:48.616Z,4.78
2019-02-09T21:38:21.165Z,3.87
2019-02-09T21:40:55.127Z,4.76
2019-02-09T21:43:28.754Z,4.69
2019-02-09T21:46:19.483Z,4.66
2019-02-09T21:48:54.414Z,4.67
2019-02-09T21:51:25.963Z,4.65
2019-02-09T21:54:18.212Z,4.67
2019-02-09T21:57:27.189Z,4.65
2019-02-09T21:59:58.895Z,4.58
2019-02-09T22:02:51.255Z,4.62
2019-02-09T22:05:42.025Z,4.76
2019-02-09T22:08:32.380Z,4.64
2019-02-09T22:11:22.849Z,4.68
2019-02-09T22:13:55.511Z,4.69
2019-02-09T22:16:46.205Z,4.69
2019-02-09T22:19:38.510Z,3.70
2019-02-09T22:22:22.374Z,3.64
2019-02-09T22:25:03.835Z,4.57
2019-02-09T22:27:54.168Z,4.61
2019-02-09T22:30:28.380Z,4.69
2019-02-09T22:33:24.805Z,4.55
2019-02-09T22:36:00.043Z,4.52
2019-02-09T22:38:49.501Z,4.51
2019-02-09T22:41:21.566Z,3.75
2019-02-09T22:43:53.326Z,4.58
2019-02-09T22:46:44.231Z,4.54
2019-02-09T22:49:16.197Z,4.48
2019-02-09T22:52:07.714Z,4.41
2019-02-09T22:54:57.905Z,4.35
2019-02-09T22:58:10.747Z,4.29
2019-02-09T23:01:09.268Z,4.39
